Master Jet — 5BKD3 — position and weather

sailwx.info

Track history (hours):
 
Tides and Currents Weather Stations Pressure Air Temp Water Temp Dewpoint Dewpoint Depression Visibility Wind Speed Wind Dir Waves Ship Positions

Master Jet

Last reported at 2017-Oct-04 05:00 UTC. Time now 2017-Nov-21 19:34 UTC.
Position N 38°22' E 023°45'.
Warning: this ship's position is 48 days out of date.

Length 74 m; draft 2.8 m.

Type: Ship. MMSI: 209349000.

Date/timePositionNaut miles runAvg speedWind from/ knotsBaromVisibWave heightAir tempDewpointWater temp
2017-Oct-04 05:00N 38°22' E 023°45'2112.9
2017-Oct-04 03:24N 38°11' E 024°07'710.0
2017-Oct-04 02:43N 38°05' E 024°08'1 6.6
2017-Oct-04 02:30N 38°03' E 024°08'3 6.6
2017-Oct-04 02:00N 37°60' E 024°08'3 6.0
2017-Oct-04 01:29N 37°57' E 024°08'6112.2
2017-Oct-03 20:29N 37°04' E 023°28'42512.6
2017-Oct-02 10:51N 35°57' E 014°47'618.2
2017-Oct-02 10:30N 35°55' E 014°39'6 0.8
2017-Oct-02 02:36N 35°54' E 014°31'111.1
2017-Oct-02 02:30N 35°55' E 014°32'4 8.7
2017-Oct-02 02:01N 35°59' E 014°31'918.4
2017-Oct-02 01:30N 36°05' E 014°22'918.3
2017-Oct-02 01:00N 36°09' E 014°12'918.3
2017-Oct-02 00:30N 36°13' E 014°02'918.1
2017-Oct-02 00:00N 36°18' E 013°52'92519.0
2017-Sep-29 23:20N 35°56' W 005°12'513.9
2017-Sep-29 23:00N 35°55' W 005°18'1 2.9
2017-Sep-29 22:30N 35°54' W 005°18'0 0.0
2017-Sep-29 22:01N 35°54' W 005°18'0 0.0
2017-Sep-29 21:31N 35°54' W 005°18'0 0.0
2017-Sep-29 21:01N 35°54' W 005°18'0 0.0
2017-Sep-29 20:30N 35°54' W 005°18'0 0.0
2017-Sep-29 20:00N 35°54' W 005°18'0 0.0
2017-Sep-29 19:30N 35°54' W 005°18'0 0.0
2017-Sep-29 19:01N 35°54' W 005°18'0 0.0
2017-Sep-29 18:31N 35°54' W 005°18'1 1.9
2017-Sep-29 18:00N 35°55' W 005°19'4 7.9
2017-Sep-29 17:30N 35°57' W 005°23'1120.7
2017-Sep-29 16:59N 35°55' W 005°36'17118.9
2017-Sep-29 07:58N 36°10' W 009°06'919.6
2017-Sep-29 07:30N 36°12' W 009°17'1019.9
2017-Sep-29 06:59N 36°13' W 009°30'919.4
2017-Sep-29 06:30N 36°14' W 009°42'1019.6
2017-Sep-29 06:00N 36°15' W 009°54'1019.6
2017-Sep-29 05:30N 36°17' W 010°06'1019.9
2017-Sep-29 05:00N 36°18' W 010°18'2020.0
2017-Sep-29 03:59N 36°21' W 010°43'1020.1
2017-Sep-29 03:30N 36°22' W 010°55'1020.1
2017-Sep-29 03:00N 36°23' W 011°07'2520.1
2017-Sep-29 01:46N 36°26' W 011°38'519.9
2017-Sep-29 01:29N 36°26' W 011°45'1021.5
2017-Sep-29 01:00N 36°27' W 011°58'56822.9
2017-Sep-28 00:08N 37°35' W 023°45'322.8
2017-Sep-28 00:00N 37°35' W 023°49'1122.6
2017-Sep-27 23:30N 37°36' W 024°02'1223.1
2017-Sep-27 23:00N 37°37' W 024°17'1223.5
2017-Sep-27 22:30N 37°38' W 024°32'1223.4
2017-Sep-27 22:00N 37°39' W 024°47'1223.1
2017-Sep-27 21:30N 37°40' W 025°01'1223.1
2017-Sep-27 21:01N 37°41' W 025°16'1122.9
2017-Sep-27 20:30N 37°41' W 025°30'815.9
2017-Sep-27 20:01N 37°44' W 025°39'0 0.5
2017-Sep-27 19:28N 37°44' W 025°40'0 0.0
2017-Sep-27 18:58N 37°44' W 025°40'0 0.0
2017-Sep-27 18:28N 37°44' W 025°40'0 0.0
2017-Sep-27 17:58N 37°44' W 025°40'0 0.0
2017-Sep-27 17:28N 37°44' W 025°40'0 0.0
2017-Sep-27 16:58N 37°44' W 025°40'0 0.0
2017-Sep-27 16:28N 37°44' W 025°40'0 0.0
2017-Sep-27 15:58N 37°44' W 025°40'0 0.0
2017-Sep-27 15:28N 37°44' W 025°40'0 0.0
2017-Sep-27 14:58N 37°44' W 025°40'0 0.0
2017-Sep-27 14:29N 37°44' W 025°40'0 0.0
2017-Sep-27 13:59N 37°44' W 025°40'0 0.0
2017-Sep-27 13:29N 37°44' W 025°40'0 0.0
2017-Sep-27 12:59N 37°44' W 025°40'0 0.0
2017-Sep-27 12:29N 37°44' W 025°40'0 0.0
2017-Sep-27 11:59N 37°44' W 025°40'0 0.0
2017-Sep-27 11:29N 37°44' W 025°40'0 0.0
2017-Sep-27 10:59N 37°44' W 025°40'0 0.0
2017-Sep-27 10:29N 37°44' W 025°40'0 0.0
2017-Sep-27 09:59N 37°44' W 025°40'0 0.0
2017-Sep-27 09:29N 37°44' W 025°40'0 0.0
2017-Sep-27 08:59N 37°44' W 025°40'0 0.0
2017-Sep-27 08:29N 37°44' W 025°40'0 0.0
2017-Sep-27 07:59N 37°44' W 025°40'0 0.0
2017-Sep-27 07:29N 37°44' W 025°40'0 0.0
2017-Sep-27 06:59N 37°44' W 025°40'0 0.0
2017-Sep-27 06:29N 37°44' W 025°40'0 0.0
2017-Sep-27 05:59N 37°44' W 025°40'0 0.0
2017-Sep-27 05:29N 37°44' W 025°40'0 0.0
2017-Sep-27 04:59N 37°44' W 025°40'0 0.0
2017-Sep-27 04:29N 37°44' W 025°40'0 0.0
2017-Sep-27 03:59N 37°44' W 025°40'0 0.0
2017-Sep-27 03:29N 37°44' W 025°40'0 0.0
2017-Sep-27 02:59N 37°44' W 025°40'0 0.0
2017-Sep-27 02:29N 37°44' W 025°40'0 0.0
2017-Sep-27 01:59N 37°44' W 025°40'0 0.0
2017-Sep-27 01:29N 37°44' W 025°40'0 0.0
2017-Sep-27 00:59N 37°44' W 025°40'0 0.0
2017-Sep-27 00:29N 37°44' W 025°40'0 0.0
2017-Sep-26 23:59N 37°44' W 025°40'0 0.0
2017-Sep-26 23:26N 37°44' W 025°40'0 0.0
2017-Sep-26 22:59N 37°44' W 025°40'0 0.0
2017-Sep-26 22:29N 37°44' W 025°40'0 0.0
2017-Sep-26 21:59N 37°44' W 025°40'0 0.0
2017-Sep-26 21:29N 37°44' W 025°40'0 0.0
2017-Sep-26 20:59N 37°44' W 025°40'0 0.0
2017-Sep-26 20:29N 37°44' W 025°40'0 0.0
2017-Sep-26 19:59N 37°44' W 025°40'0 0.0
2017-Sep-26 19:29N 37°44' W 025°40'0 0.0
2017-Sep-26 18:59N 37°44' W 025°40'0 0.0
2017-Sep-26 18:29N 37°44' W 025°40'0 0.0
2017-Sep-26 17:59N 37°44' W 025°40'0 0.0
2017-Sep-26 17:29N 37°44' W 025°40'0 0.0
2017-Sep-26 16:59N 37°44' W 025°40'0 0.0
2017-Sep-26 16:29N 37°44' W 025°40'0 0.0
2017-Sep-26 15:59N 37°44' W 025°40'0 0.0
2017-Sep-26 15:29N 37°44' W 025°40'0 0.0
2017-Sep-26 14:59N 37°44' W 025°40'0 0.0
2017-Sep-26 14:29N 37°44' W 025°40'0 0.0
2017-Sep-26 13:59N 37°44' W 025°40'0 0.0
2017-Sep-26 13:29N 37°44' W 025°40'0 0.0
2017-Sep-26 12:59N 37°44' W 025°40'0 0.0
2017-Sep-26 12:29N 37°44' W 025°40'0 0.0
2017-Sep-26 11:59N 37°44' W 025°40'0 0.0
2017-Sep-26 11:29N 37°44' W 025°40'0 0.0
2017-Sep-26 10:59N 37°44' W 025°40'0 0.0
2017-Sep-26 10:29N 37°44' W 025°40'0 0.0
2017-Sep-26 09:59N 37°44' W 025°40'0 0.0
2017-Sep-26 09:29N 37°44' W 025°40'0 0.0
2017-Sep-26 08:59N 37°44' W 025°40'0 0.0
2017-Sep-26 08:29N 37°44' W 025°40'0 0.0
2017-Sep-26 07:59N 37°44' W 025°40'0 0.0
2017-Sep-26 07:29N 37°44' W 025°40'0 0.0
2017-Sep-26 06:59N 37°44' W 025°40'0 0.0
2017-Sep-26 06:29N 37°44' W 025°40'0 0.0
2017-Sep-26 05:59N 37°44' W 025°40'0 0.0
2017-Sep-26 05:26N 37°44' W 025°40'0 0.0
2017-Sep-26 04:59N 37°44' W 025°40'0 0.0
2017-Sep-26 04:29N 37°44' W 025°40'0 0.0
2017-Sep-26 03:59N 37°44' W 025°40'0 0.0
2017-Sep-26 03:29N 37°44' W 025°40'0 0.0
2017-Sep-26 02:59N 37°44' W 025°40'0 0.0
2017-Sep-26 02:29N 37°44' W 025°40'0 0.0
2017-Sep-26 01:59N 37°44' W 025°40'0 0.0
2017-Sep-26 01:29N 37°44' W 025°40'0 0.0
2017-Sep-26 00:59N 37°44' W 025°40'0 0.0
2017-Sep-26 00:29N 37°44' W 025°40'0 0.0
2017-Sep-25 23:59N 37°44' W 025°40'0 0.0
2017-Sep-25 23:29N 37°44' W 025°40'0 0.0
2017-Sep-25 22:59N 37°44' W 025°40'0 0.0
2017-Sep-25 22:29N 37°44' W 025°40'0 0.0
2017-Sep-25 21:59N 37°44' W 025°40'0 0.0
2017-Sep-25 21:29N 37°44' W 025°40'0 0.0
2017-Sep-25 20:59N 37°44' W 025°40'0 0.0
2017-Sep-25 20:29N 37°44' W 025°40'0 0.0
2017-Sep-25 19:59N 37°44' W 025°40'0 0.0
2017-Sep-25 19:29N 37°44' W 025°40'0 0.0
2017-Sep-25 18:59N 37°44' W 025°40'0 0.0
2017-Sep-25 18:28N 37°44' W 025°40'0 0.0
2017-Sep-25 17:58N 37°44' W 025°40'0 0.0
2017-Sep-25 17:28N 37°44' W 025°40'0 0.0
2017-Sep-25 17:01N 37°44' W 025°40'0 0.0
2017-Sep-25 16:28N 37°44' W 025°40'0 0.0
2017-Sep-25 15:58N 37°44' W 025°40'0 0.0
2017-Sep-25 15:28N 37°44' W 025°40'0 0.0
2017-Sep-25 14:58N 37°44' W 025°40'0 0.0
2017-Sep-25 14:28N 37°44' W 025°40'0 0.0
2017-Sep-25 13:58N 37°44' W 025°40'0 0.0
2017-Sep-25 13:28N 37°44' W 025°40'0 0.0
2017-Sep-25 12:58N 37°44' W 025°40'0 0.0
2017-Sep-25 12:28N 37°44' W 025°40'0 0.0
2017-Sep-25 11:58N 37°44' W 025°40'0 0.0
2017-Sep-25 11:28N 37°44' W 025°40'0 0.0
2017-Sep-25 10:58N 37°44' W 025°40'0 0.0
2017-Sep-25 10:28N 37°44' W 025°40'0 0.0
2017-Sep-25 09:58N 37°44' W 025°40'0 0.0
2017-Sep-25 09:28N 37°44' W 025°40'0 0.0
2017-Sep-25 08:58N 37°44' W 025°40'0 0.0
2017-Sep-25 08:28N 37°44' W 025°40'0 0.0
2017-Sep-25 07:58N 37°44' W 025°40'0 0.0
2017-Sep-25 07:28N 37°44' W 025°40'0 0.0
2017-Sep-25 06:58N 37°44' W 025°40'0 0.0
2017-Sep-25 06:28N 37°44' W 025°40'0 0.0
2017-Sep-25 05:58N 37°44' W 025°40'0 0.0
2017-Sep-25 05:28N 37°44' W 025°40'0 0.0
2017-Sep-25 04:58N 37°44' W 025°40'0 0.0
2017-Sep-25 04:28N 37°44' W 025°40'0 0.0
2017-Sep-25 03:58N 37°44' W 025°40'0 0.0
2017-Sep-25 03:28N 37°44' W 025°40'0 0.0
2017-Sep-25 02:58N 37°44' W 025°40'0 0.0
2017-Sep-25 02:28N 37°44' W 025°40'0 0.0
2017-Sep-25 01:58N 37°44' W 025°40'0 0.0
2017-Sep-25 01:28N 37°44' W 025°40'0 0.0
2017-Sep-25 00:58N 37°44' W 025°40'0 0.1
2017-Sep-25 00:30N 37°44' W 025°40'1019.6
2017-Sep-25 00:01N 37°36' W 025°33'1122.6
2017-Sep-24 23:31N 37°26' W 025°27'1122.2
2017-Sep-24 23:01N 37°16' W 025°21'1122.2
2017-Sep-24 22:30N 37°06' W 025°15'1121.3
2017-Sep-24 22:01N 36°56' W 025°10'1 2.7
2017-Sep-24 21:30N 36°57' W 025°09'0 0.0
2017-Sep-24 21:00N 36°57' W 025°09'713.3
2017-Sep-24 20:30N 37°02' W 025°14'1223.3
2017-Sep-24 20:00N 37°12' W 025°21'1224.1
2017-Sep-24 19:31N 37°23' W 025°28'1223.5
2017-Sep-24 19:00N 37°33' W 025°34'1020.7
2017-Sep-24 18:31N 37°43' W 025°39'1 2.6
2017-Sep-24 17:58N 37°44' W 025°40'0 0.0
2017-Sep-24 17:28N 37°44' W 025°40'0 0.0
2017-Sep-24 16:58N 37°44' W 025°40'0 0.0
2017-Sep-24 16:28N 37°44' W 025°40'0 0.0
2017-Sep-24 15:58N 37°44' W 025°40'0 0.0
2017-Sep-24 15:28N 37°44' W 025°40'0 0.0
2017-Sep-24 14:58N 37°44' W 025°40'0 0.0
2017-Sep-24 14:28N 37°44' W 025°40'0 0.0
2017-Sep-24 13:58N 37°44' W 025°40'0 0.0
2017-Sep-24 13:28N 37°44' W 025°40'0 0.0
2017-Sep-24 12:58N 37°44' W 025°40'0 0.0
2017-Sep-24 12:28N 37°44' W 025°40'0 0.0
2017-Sep-24 11:58N 37°44' W 025°40'0 0.0
2017-Sep-24 11:28N 37°44' W 025°40'0 0.0
2017-Sep-24 10:58N 37°44' W 025°40'0 0.0
2017-Sep-24 10:28N 37°44' W 025°40'0 0.0
2017-Sep-24 09:58N 37°44' W 025°40'0 0.0
2017-Sep-24 09:28N 37°44' W 025°40'0 0.0
2017-Sep-24 08:58N 37°44' W 025°40'0 0.0
2017-Sep-24 08:28N 37°44' W 025°40'0 0.0
2017-Sep-24 07:58N 37°44' W 025°40'0 0.0
2017-Sep-24 07:28N 37°44' W 025°40'0 0.0
2017-Sep-24 06:58N 37°44' W 025°40'0 0.0
2017-Sep-24 06:28N 37°44' W 025°40'0 0.0
2017-Sep-24 05:58N 37°44' W 025°40'0 0.0
2017-Sep-24 05:28N 37°44' W 025°40'  
Track history (hours):
 
Tides and Currents Weather Stations Pressure Air Temp Water Temp Dewpoint Dewpoint Depression Visibility Wind Speed Wind Dir Waves Ship Positions

Master Jet

Last reported at 2017-Oct-04 05:00 UTC. Time now 2017-Nov-21 19:34 UTC.
Position N 38°22' E 023°45'.
Warning: this ship's position is 48 days out of date.

Length 74 m; draft 2.8 m.

Type: Ship. MMSI: 209349000.

Date/timePositionNaut miles runAvg speedWind from/ knotsBaromVisibWave heightAir tempDewpointWater temp
2017-Oct-04 05:00N 38°22' E 023°45'2112.9
2017-Oct-04 03:24N 38°11' E 024°07'710.0
2017-Oct-04 02:43N 38°05' E 024°08'1 6.6
2017-Oct-04 02:30N 38°03' E 024°08'3 6.6
2017-Oct-04 02:00N 37°60' E 024°08'3 6.0
2017-Oct-04 01:29N 37°57' E 024°08'6112.2
2017-Oct-03 20:29N 37°04' E 023°28'42512.6
2017-Oct-02 10:51N 35°57' E 014°47'618.2
2017-Oct-02 10:30N 35°55' E 014°39'6 0.8
2017-Oct-02 02:36N 35°54' E 014°31'111.1
2017-Oct-02 02:30N 35°55' E 014°32'4 8.7
2017-Oct-02 02:01N 35°59' E 014°31'918.4
2017-Oct-02 01:30N 36°05' E 014°22'918.3
2017-Oct-02 01:00N 36°09' E 014°12'918.3
2017-Oct-02 00:30N 36°13' E 014°02'918.1
2017-Oct-02 00:00N 36°18' E 013°52'92519.0
2017-Sep-29 23:20N 35°56' W 005°12'513.9
2017-Sep-29 23:00N 35°55' W 005°18'1 2.9
2017-Sep-29 22:30N 35°54' W 005°18'0 0.0
2017-Sep-29 22:01N 35°54' W 005°18'0 0.0
2017-Sep-29 21:31N 35°54' W 005°18'0 0.0
2017-Sep-29 21:01N 35°54' W 005°18'0 0.0
2017-Sep-29 20:30N 35°54' W 005°18'0 0.0
2017-Sep-29 20:00N 35°54' W 005°18'0 0.0
2017-Sep-29 19:30N 35°54' W 005°18'0 0.0
2017-Sep-29 19:01N 35°54' W 005°18'0 0.0
2017-Sep-29 18:31N 35°54' W 005°18'1 1.9
2017-Sep-29 18:00N 35°55' W 005°19'4 7.9
2017-Sep-29 17:30N 35°57' W 005°23'1120.7
2017-Sep-29 16:59N 35°55' W 005°36'17118.9
2017-Sep-29 07:58N 36°10' W 009°06'919.6
2017-Sep-29 07:30N 36°12' W 009°17'1019.9
2017-Sep-29 06:59N 36°13' W 009°30'919.4
2017-Sep-29 06:30N 36°14' W 009°42'1019.6
2017-Sep-29 06:00N 36°15' W 009°54'1019.6
2017-Sep-29 05:30N 36°17' W 010°06'1019.9
2017-Sep-29 05:00N 36°18' W 010°18'2020.0
2017-Sep-29 03:59N 36°21' W 010°43'1020.1
2017-Sep-29 03:30N 36°22' W 010°55'1020.1
2017-Sep-29 03:00N 36°23' W 011°07'2520.1
2017-Sep-29 01:46N 36°26' W 011°38'519.9
2017-Sep-29 01:29N 36°26' W 011°45'1021.5
2017-Sep-29 01:00N 36°27' W 011°58'56822.9
2017-Sep-28 00:08N 37°35' W 023°45'322.8
2017-Sep-28 00:00N 37°35' W 023°49'1122.6
2017-Sep-27 23:30N 37°36' W 024°02'1223.1
2017-Sep-27 23:00N 37°37' W 024°17'1223.5
2017-Sep-27 22:30N 37°38' W 024°32'1223.4
2017-Sep-27 22:00N 37°39' W 024°47'1223.1
2017-Sep-27 21:30N 37°40' W 025°01'1223.1
2017-Sep-27 21:01N 37°41' W 025°16'1122.9
2017-Sep-27 20:30N 37°41' W 025°30'815.9
2017-Sep-27 20:01N 37°44' W 025°39'0 0.5
2017-Sep-27 19:28N 37°44' W 025°40'0 0.0
2017-Sep-27 18:58N 37°44' W 025°40'0 0.0
2017-Sep-27 18:28N 37°44' W 025°40'0 0.0
2017-Sep-27 17:58N 37°44' W 025°40'0 0.0
2017-Sep-27 17:28N 37°44' W 025°40'0 0.0
2017-Sep-27 16:58N 37°44' W 025°40'0 0.0
2017-Sep-27 16:28N 37°44' W 025°40'0 0.0
2017-Sep-27 15:58N 37°44' W 025°40'0 0.0
2017-Sep-27 15:28N 37°44' W 025°40'0 0.0
2017-Sep-27 14:58N 37°44' W 025°40'0 0.0
2017-Sep-27 14:29N 37°44' W 025°40'0 0.0
2017-Sep-27 13:59N 37°44' W 025°40'0 0.0
2017-Sep-27 13:29N 37°44' W 025°40'0 0.0
2017-Sep-27 12:59N 37°44' W 025°40'0 0.0
2017-Sep-27 12:29N 37°44' W 025°40'0 0.0
2017-Sep-27 11:59N 37°44' W 025°40'0 0.0
2017-Sep-27 11:29N 37°44' W 025°40'0 0.0
2017-Sep-27 10:59N 37°44' W 025°40'0 0.0
2017-Sep-27 10:29N 37°44' W 025°40'0 0.0
2017-Sep-27 09:59N 37°44' W 025°40'0 0.0
2017-Sep-27 09:29N 37°44' W 025°40'0 0.0
2017-Sep-27 08:59N 37°44' W 025°40'0 0.0
2017-Sep-27 08:29N 37°44' W 025°40'0 0.0
2017-Sep-27 07:59N 37°44' W 025°40'0 0.0
2017-Sep-27 07:29N 37°44' W 025°40'0 0.0
2017-Sep-27 06:59N 37°44' W 025°40'0 0.0
2017-Sep-27 06:29N 37°44' W 025°40'0 0.0
2017-Sep-27 05:59N 37°44' W 025°40'0 0.0
2017-Sep-27 05:29N 37°44' W 025°40'0 0.0
2017-Sep-27 04:59N 37°44' W 025°40'0 0.0
2017-Sep-27 04:29N 37°44' W 025°40'0 0.0
2017-Sep-27 03:59N 37°44' W 025°40'0 0.0
2017-Sep-27 03:29N 37°44' W 025°40'0 0.0
2017-Sep-27 02:59N 37°44' W 025°40'0 0.0
2017-Sep-27 02:29N 37°44' W 025°40'0 0.0
2017-Sep-27 01:59N 37°44' W 025°40'0 0.0
2017-Sep-27 01:29N 37°44' W 025°40'0 0.0
2017-Sep-27 00:59N 37°44' W 025°40'0 0.0
2017-Sep-27 00:29N 37°44' W 025°40'0 0.0
2017-Sep-26 23:59N 37°44' W 025°40'0 0.0
2017-Sep-26 23:26N 37°44' W 025°40'0 0.0
2017-Sep-26 22:59N 37°44' W 025°40'0 0.0
2017-Sep-26 22:29N 37°44' W 025°40'0 0.0
2017-Sep-26 21:59N 37°44' W 025°40'0 0.0
2017-Sep-26 21:29N 37°44' W 025°40'0 0.0
2017-Sep-26 20:59N 37°44' W 025°40'0 0.0
2017-Sep-26 20:29N 37°44' W 025°40'0 0.0
2017-Sep-26 19:59N 37°44' W 025°40'0 0.0
2017-Sep-26 19:29N 37°44' W 025°40'0 0.0
2017-Sep-26 18:59N 37°44' W 025°40'0 0.0
2017-Sep-26 18:29N 37°44' W 025°40'0 0.0
2017-Sep-26 17:59N 37°44' W 025°40'0 0.0
2017-Sep-26 17:29N 37°44' W 025°40'0 0.0
2017-Sep-26 16:59N 37°44' W 025°40'0 0.0
2017-Sep-26 16:29N 37°44' W 025°40'0 0.0
2017-Sep-26 15:59N 37°44' W 025°40'0 0.0
2017-Sep-26 15:29N 37°44' W 025°40'0 0.0
2017-Sep-26 14:59N 37°44' W 025°40'0 0.0
2017-Sep-26 14:29N 37°44' W 025°40'0 0.0
2017-Sep-26 13:59N 37°44' W 025°40'0 0.0
2017-Sep-26 13:29N 37°44' W 025°40'0 0.0
2017-Sep-26 12:59N 37°44' W 025°40'0 0.0
2017-Sep-26 12:29N 37°44' W 025°40'0 0.0
2017-Sep-26 11:59N 37°44' W 025°40'0 0.0
2017-Sep-26 11:29N 37°44' W 025°40'0 0.0
2017-Sep-26 10:59N 37°44' W 025°40'0 0.0
2017-Sep-26 10:29N 37°44' W 025°40'0 0.0
2017-Sep-26 09:59N 37°44' W 025°40'0 0.0
2017-Sep-26 09:29N 37°44' W 025°40'0 0.0
2017-Sep-26 08:59N 37°44' W 025°40'0 0.0
2017-Sep-26 08:29N 37°44' W 025°40'0 0.0
2017-Sep-26 07:59N 37°44' W 025°40'0 0.0
2017-Sep-26 07:29N 37°44' W 025°40'0 0.0
2017-Sep-26 06:59N 37°44' W 025°40'0 0.0
2017-Sep-26 06:29N 37°44' W 025°40'0 0.0
2017-Sep-26 05:59N 37°44' W 025°40'0 0.0
2017-Sep-26 05:26N 37°44' W 025°40'0 0.0
2017-Sep-26 04:59N 37°44' W 025°40'0 0.0
2017-Sep-26 04:29N 37°44' W 025°40'0 0.0
2017-Sep-26 03:59N 37°44' W 025°40'0 0.0
2017-Sep-26 03:29N 37°44' W 025°40'0 0.0
2017-Sep-26 02:59N 37°44' W 025°40'0 0.0
2017-Sep-26 02:29N 37°44' W 025°40'0 0.0
2017-Sep-26 01:59N 37°44' W 025°40'0 0.0
2017-Sep-26 01:29N 37°44' W 025°40'0 0.0
2017-Sep-26 00:59N 37°44' W 025°40'0 0.0
2017-Sep-26 00:29N 37°44' W 025°40'0 0.0
2017-Sep-25 23:59N 37°44' W 025°40'0 0.0
2017-Sep-25 23:29N 37°44' W 025°40'0 0.0
2017-Sep-25 22:59N 37°44' W 025°40'0 0.0
2017-Sep-25 22:29N 37°44' W 025°40'0 0.0
2017-Sep-25 21:59N 37°44' W 025°40'0 0.0
2017-Sep-25 21:29N 37°44' W 025°40'0 0.0
2017-Sep-25 20:59N 37°44' W 025°40'0 0.0
2017-Sep-25 20:29N 37°44' W 025°40'0 0.0
2017-Sep-25 19:59N 37°44' W 025°40'0 0.0
2017-Sep-25 19:29N 37°44' W 025°40'0 0.0
2017-Sep-25 18:59N 37°44' W 025°40'0 0.0
2017-Sep-25 18:28N 37°44' W 025°40'0 0.0
2017-Sep-25 17:58N 37°44' W 025°40'0 0.0
2017-Sep-25 17:28N 37°44' W 025°40'0 0.0
2017-Sep-25 17:01N 37°44' W 025°40'0 0.0
2017-Sep-25 16:28N 37°44' W 025°40'0 0.0
2017-Sep-25 15:58N 37°44' W 025°40'0 0.0
2017-Sep-25 15:28N 37°44' W 025°40'0 0.0
2017-Sep-25 14:58N 37°44' W 025°40'0 0.0
2017-Sep-25 14:28N 37°44' W 025°40'0 0.0
2017-Sep-25 13:58N 37°44' W 025°40'0 0.0
2017-Sep-25 13:28N 37°44' W 025°40'0 0.0
2017-Sep-25 12:58N 37°44' W 025°40'0 0.0
2017-Sep-25 12:28N 37°44' W 025°40'0 0.0
2017-Sep-25 11:58N 37°44' W 025°40'0 0.0
2017-Sep-25 11:28N 37°44' W 025°40'0 0.0
2017-Sep-25 10:58N 37°44' W 025°40'0 0.0
2017-Sep-25 10:28N 37°44' W 025°40'0 0.0
2017-Sep-25 09:58N 37°44' W 025°40'0 0.0
2017-Sep-25 09:28N 37°44' W 025°40'0 0.0
2017-Sep-25 08:58N 37°44' W 025°40'0 0.0
2017-Sep-25 08:28N 37°44' W 025°40'0 0.0
2017-Sep-25 07:58N 37°44' W 025°40'0 0.0
2017-Sep-25 07:28N 37°44' W 025°40'0 0.0
2017-Sep-25 06:58N 37°44' W 025°40'0 0.0
2017-Sep-25 06:28N 37°44' W 025°40'0 0.0
2017-Sep-25 05:58N 37°44' W 025°40'0 0.0
2017-Sep-25 05:28N 37°44' W 025°40'0 0.0
2017-Sep-25 04:58N 37°44' W 025°40'0 0.0
2017-Sep-25 04:28N 37°44' W 025°40'0 0.0
2017-Sep-25 03:58N 37°44' W 025°40'0 0.0
2017-Sep-25 03:28N 37°44' W 025°40'0 0.0
2017-Sep-25 02:58N 37°44' W 025°40'0 0.0
2017-Sep-25 02:28N 37°44' W 025°40'0 0.0
2017-Sep-25 01:58N 37°44' W 025°40'0 0.0
2017-Sep-25 01:28N 37°44' W 025°40'0 0.0
2017-Sep-25 00:58N 37°44' W 025°40'0 0.1
2017-Sep-25 00:30N 37°44' W 025°40'1019.6
2017-Sep-25 00:01N 37°36' W 025°33'1122.6
2017-Sep-24 23:31N 37°26' W 025°27'1122.2
2017-Sep-24 23:01N 37°16' W 025°21'1122.2
2017-Sep-24 22:30N 37°06' W 025°15'1121.3
2017-Sep-24 22:01N 36°56' W 025°10'1 2.7
2017-Sep-24 21:30N 36°57' W 025°09'0 0.0
2017-Sep-24 21:00N 36°57' W 025°09'713.3
2017-Sep-24 20:30N 37°02' W 025°14'1223.3
2017-Sep-24 20:00N 37°12' W 025°21'1224.1
2017-Sep-24 19:31N 37°23' W 025°28'1223.5
2017-Sep-24 19:00N 37°33' W 025°34'1020.7
2017-Sep-24 18:31N 37°43' W 025°39'1 2.6
2017-Sep-24 17:58N 37°44' W 025°40'0 0.0
2017-Sep-24 17:28N 37°44' W 025°40'0 0.0
2017-Sep-24 16:58N 37°44' W 025°40'0 0.0
2017-Sep-24 16:28N 37°44' W 025°40'0 0.0
2017-Sep-24 15:58N 37°44' W 025°40'0 0.0
2017-Sep-24 15:28N 37°44' W 025°40'0 0.0
2017-Sep-24 14:58N 37°44' W 025°40'0 0.0
2017-Sep-24 14:28N 37°44' W 025°40'0 0.0
2017-Sep-24 13:58N 37°44' W 025°40'0 0.0
2017-Sep-24 13:28N 37°44' W 025°40'0 0.0
2017-Sep-24 12:58N 37°44' W 025°40'0 0.0
2017-Sep-24 12:28N 37°44' W 025°40'0 0.0
2017-Sep-24 11:58N 37°44' W 025°40'0 0.0
2017-Sep-24 11:28N 37°44' W 025°40'0 0.0
2017-Sep-24 10:58N 37°44' W 025°40'0 0.0
2017-Sep-24 10:28N 37°44' W 025°40'0 0.0
2017-Sep-24 09:58N 37°44' W 025°40'0 0.0
2017-Sep-24 09:28N 37°44' W 025°40'0 0.0
2017-Sep-24 08:58N 37°44' W 025°40'0 0.0
2017-Sep-24 08:28N 37°44' W 025°40'0 0.0
2017-Sep-24 07:58N 37°44' W 025°40'0 0.0
2017-Sep-24 07:28N 37°44' W 025°40'0 0.0
2017-Sep-24 06:58N 37°44' W 025°40'0 0.0
2017-Sep-24 06:28N 37°44' W 025°40'0 0.0
2017-Sep-24 05:58N 37°44' W 025°40'0 0.0
2017-Sep-24 05:28N 37°44' W 025°40'  

Dump ship's entire track history